Time;durP1;ratioP1;P1;durP2;ratioP2;P2;SDS_P1;SDS_P2;PMS_P1;PMS_P2;Temp;Humidity;BMP_temperature;BMP_pressure;BME280_temperature;BME280_humidity;BME280_pressure;Samples;Min_cycle;Max_cycle;Signal;HPM_P1;HPM_P2
2023/04/22 00:02:13;;;;;;;;;;;;;;;13.07;71.10;100650.78;4900810;29;19923;-78
2023/04/22 00:05:05;;;;;;;;;;;;;;;13.04;71.27;100656.13;4911705;29;19915;-78
2023/04/22 00:07:54;;;;;;;;;;;;;;;13.07;71.95;100652.72;4900401;29;20371;-78
2023/04/22 00:10:46;;;;;;;;;;;;;;;13.15;71.49;100646.44;4905286;29;19919;-78
2023/04/22 00:13:38;;;;;;;;;;;;;;;13.01;71.74;100649.38;4902376;29;19915;-78
2023/04/22 00:16:30;;;;;;;;;;;;;;;12.60;72.37;100641.97;4912722;29;19915;-78
2023/04/22 00:19:22;;;;;;;;;;;;;;;12.37;73.02;100646.13;4912616;29;19915;-78
2023/04/22 00:22:14;;;;;;;;;;;;;;;12.53;72.49;100646.34;4900682;29;19915;-78
2023/04/22 00:25:06;;;;;;;;;;;;;;;12.61;71.58;100649.03;4900483;29;19919;-77
2023/04/22 00:27:58;;;;;;;;;;;;;;;12.63;71.49;100645.97;4900014;29;19919;-78
2023/04/22 00:30:47;;;;;;;;;;;;;;;12.65;71.29;100644.50;4901446;29;20331;-78
2023/04/22 00:33:39;;;;;;;;;;;;;;;12.69;71.50;100640.00;4899061;29;19915;-77
2023/04/22 00:36:31;;;;;;;;;;;;;;;12.74;70.96;100644.47;4909669;29;19919;-77
2023/04/22 00:39:23;;;;;;;;;;;;;;;12.46;72.78;100640.63;4900065;29;19915;-77
2023/04/22 00:42:13;;;;;;;;;;;;;;;12.57;72.42;100633.66;4916065;29;19916;-77
2023/04/22 00:45:04;;;;;;;;;;;;;;;12.42;72.58;100637.75;4902100;29;19939;-77
2023/04/22 00:47:57;;;;;;;;;;;;;;;12.27;73.38;100641.84;4902521;29;20283;-77
2023/04/22 00:50:49;;;;;;;;;;;;;;;12.31;73.20;100640.06;4898858;29;19919;-77
2023/04/22 00:53:41;;;;;;;;;;;;;;;12.39;72.69;100646.59;4899813;29;20283;-77
2023/04/22 00:56:34;;;;;;;;;;;;;;;12.54;72.39;100654.22;4980136;23;19927;-81
2023/04/22 00:59:26;;;;;;;;;;;;;;;12.58;72.02;100649.69;4960580;28;19918;-84
2023/04/22 01:02:18;;;;;;;;;;;;;;;12.72;71.73;100650.25;4938849;29;19915;-83
2023/04/22 01:05:11;;;;;;;;;;;;;;;12.73;71.66;100645.59;4925433;29;19915;-84
2023/04/22 01:08:03;;;;;;;;;;;;;;;12.62;72.92;100650.63;4917115;29;20042;-84
2023/04/22 01:10:50;;;;;;;;;;;;;;;12.67;72.36;100644.97;4936745;29;20381;-82
2023/04/22 01:13:42;;;;;;;;;;;;;;;12.75;72.42;100655.03;4908502;29;20283;-81
2023/04/22 01:16:32;;;;;;;;;;;;;;;12.76;72.33;100640.25;4922236;29;19918;-83
2023/04/22 01:19:24;;;;;;;;;;;;;;;12.72;73.21;100647.53;4940586;29;19923;-81
2023/04/22 01:22:17;;;;;;;;;;;;;;;12.83;72.64;100650.66;4927399;29;19915;-83
2023/04/22 01:25:09;;;;;;;;;;;;;;;12.82;72.97;100652.59;4938695;29;20379;-81
2023/04/22 01:27:59;;;;;;;;;;;;;;;12.80;73.19;100654.84;4933796;29;19922;-83
2023/04/22 01:30:51;;;;;;;;;;;;;;;12.71;73.45;100656.03;4939962;29;20299;-81
2023/04/22 01:33:43;;;;;;;;;;;;;;;12.37;73.88;100648.84;4920382;29;19915;-83
2023/04/22 01:36:36;;;;;;;;;;;;;;;12.29;74.58;100649.69;4921920;29;19915;-81
2023/04/22 01:39:29;;;;;;;;;;;;;;;12.02;76.76;100645.47;4935051;29;19922;-81
2023/04/22 01:42:21;;;;;;;;;;;;;;;12.23;75.45;100643.63;4955356;28;19914;-81
2023/04/22 01:45:13;;;;;;;;;;;;;;;12.31;74.65;100650.16;4939283;29;19918;-81
2023/04/22 01:48:05;;;;;;;;;;;;;;;12.34;74.61;100639.38;4924435;29;19915;-81
2023/04/22 01:50:57;;;;;;;;;;;;;;;12.42;74.06;100645.94;4937250;29;19918;-81
2023/04/22 01:53:47;;;;;;;;;;;;;;;12.37;73.87;100644.19;4925573;29;19915;-82
2023/04/22 01:56:39;;;;;;;;;;;;;;;12.39;74.21;100641.16;4935560;29;19926;-82
2023/04/22 01:59:31;;;;;;;;;;;;;;;12.34;74.43;100638.63;4919385;29;19916;-81
2023/04/22 02:02:23;;;;;;;;;;;;;;;12.38;74.62;100639.53;4938312;29;19915;-80
2023/04/22 02:05:15;;;;;;;;;;;;;;;12.52;74.31;100642.84;4935878;29;19915;-80
2023/04/22 02:08:07;;;;;;;;;;;;;;;12.49;74.26;100646.22;4938025;29;19915;-82
2023/04/22 02:10:59;;;;;;;;;;;;;;;12.52;74.48;100644.75;4919540;29;19919;-82
2023/04/22 02:13:52;;;;;;;;;;;;;;;12.47;73.99;100647.66;4900749;29;19915;-80
2023/04/22 02:16:47;;;;;;;;;;;;;;;12.39;74.26;100641.16;4901664;29;19919;-80
2023/04/22 02:19:39;;;;;;;;;;;;;;;12.42;73.85;100640.47;4909042;29;20391;-81
2023/04/22 02:22:31;;;;;;;;;;;;;;;12.37;73.24;100643.41;4930997;29;19915;-83
2023/04/22 02:25:22;;;;;;;;;;;;;;;12.26;74.14;100653.88;4919075;29;19915;-81
2023/04/22 02:28:12;;;;;;;;;;;;;;;12.03;74.86;100640.81;4930543;29;19915;-81
2023/04/22 02:31:04;;;;;;;;;;;;;;;12.05;75.26;100635.84;4918963;29;19923;-84
2023/04/22 02:33:56;;;;;;;;;;;;;;;11.80;76.81;100634.78;4923892;29;20287;-83
2023/04/22 02:36:48;;;;;;;;;;;;;;;12.02;75.94;100636.50;4920228;29;19918;-83
2023/04/22 02:39:40;;;;;;;;;;;;;;;11.85;76.03;100638.16;4922697;29;19915;-81
2023/04/22 02:42:32;;;;;;;;;;;;;;;11.86;76.53;100634.31;4910433;29;19915;-82
2023/04/22 02:45:24;;;;;;;;;;;;;;;11.96;76.33;100633.94;4923234;29;19914;-81
2023/04/22 02:48:15;;;;;;;;;;;;;;;11.83;75.99;100643.16;4910349;29;19915;-81
2023/04/22 02:51:07;;;;;;;;;;;;;;;11.74;76.24;100642.34;4903753;29;19919;-82
2023/04/22 02:53:59;;;;;;;;;;;;;;;12.02;76.06;100641.94;4911025;29;19915;-82
2023/04/22 02:56:51;;;;;;;;;;;;;;;12.07;75.98;100644.50;4898667;29;19919;-82
2023/04/22 02:59:43;;;;;;;;;;;;;;;11.90;76.16;100639.91;4922231;29;19915;-82
2023/04/22 03:02:35;;;;;;;;;;;;;;;11.82;76.98;100638.81;4910039;29;19915;-81
2023/04/22 03:05:29;;;;;;;;;;;;;;;11.85;76.71;100638.16;4922729;29;19915;-81
2023/04/22 03:08:21;;;;;;;;;;;;;;;11.80;76.02;100634.78;4936238;29;19915;-82
2023/04/22 03:11:13;;;;;;;;;;;;;;;11.76;76.68;100629.22;4927164;29;20305;-83
2023/04/22 03:14:05;;;;;;;;;;;;;;;11.96;76.49;100633.94;4909592;29;19915;-81
2023/04/22 03:16:56;;;;;;;;;;;;;;;11.89;75.83;100633.66;4918586;29;19915;-83
2023/04/22 03:19:48;;;;;;;;;;;;;;;11.82;75.34;100632.56;4922681;29;20464;-81
2023/04/22 03:22:40;;;;;;;;;;;;;;;11.89;76.70;100621.94;4904622;29;19915;-81
2023/04/22 03:25:34;;;;;;;;;;;;;;;11.70;75.67;100627.75;4922199;29;19915;-81
2023/04/22 03:28:25;;;;;;;;;;;;;;;11.86;76.62;100630.78;4909349;29;19914;-81
2023/04/22 03:31:17;;;;;;;;;;;;;;;11.75;75.52;100624.88;4928457;29;19919;-82
2023/04/22 03:34:10;;;;;;;;;;;;;;;11.85;76.64;100632.69;4922463;29;19915;-84
2023/04/22 03:37:02;;;;;;;;;;;;;;;11.84;76.39;100631.09;4927934;29;19915;-82
2023/04/22 03:39:53;;;;;;;;;;;;;;;11.73;76.50;100624.44;4921984;29;19915;-83
2023/04/22 03:50:34;;;;;;;;;;;;;;;11.88;75.70;100631.25;4921802;29;19923;-81
2023/04/22 03:53:31;;;;;;;;;;;;;;;11.96;75.33;100633.16;4926429;29;19914;-83
2023/04/22 03:56:23;;;;;;;;;;;;;;;12.01;74.52;100627.53;4947992;28;19915;-82
2023/04/22 03:59:17;;;;;;;;;;;;;;;11.99;75.01;100627.84;4941238;29;19914;-82
2023/04/22 04:02:35;;;;;;;;;;;;;;;12.02;75.27;100626.41;4947096;29;19915;-82
2023/04/22 04:05:27;;;;;;;;;;;;;;;12.11;73.78;100626.34;4916377;29;19915;-82
2023/04/22 04:12:33;;;;;;;;;;;;;;;11.98;74.52;100633.63;4903942;29;19919;-82
2023/04/22 04:15:25;;;;;;;;;;;;;;;12.02;74.01;100636.50;4905199;29;19915;-81
2023/04/22 04:18:20;;;;;;;;;;;;;;;11.98;74.30;100631.72;4922095;29;19915;-82
2023/04/22 04:21:33;;;;;;;;;;;;;;;12.02;74.04;100636.50;4922139;29;19915;-81
2023/04/22 04:24:20;;;;;;;;;;;;;;;12.10;73.77;100633.72;4940288;28;20287;-82
2023/04/22 04:27:12;;;;;;;;;;;;;;;12.14;73.26;100628.44;4934845;29;19914;-82
2023/04/22 04:30:06;;;;;;;;;;;;;;;11.97;73.99;100624.66;4949538;29;19915;-82
2023/04/22 04:33:05;;;;;;;;;;;;;;;11.97;74.82;100627.38;4898472;29;19915;-82
2023/04/22 04:35:57;;;;;;;;;;;;;;;12.12;74.51;100630.69;4946255;29;19914;-82
2023/04/22 04:38:52;;;;;;;;;;;;;;;12.13;74.87;100627.63;4941022;29;19915;-81
2023/04/22 04:41:44;;;;;;;;;;;;;;;12.15;74.48;100630.03;4941087;29;19918;-81
2023/04/22 04:44:36;;;;;;;;;;;;;;;12.11;73.78;100629.09;4914903;29;19915;-81
2023/04/22 04:47:28;;;;;;;;;;;;;;;11.86;74.04;100639.75;4900760;29;19915;-81
2023/04/22 04:50:24;;;;;;;;;;;;;;;11.85;73.49;100637.34;4900361;29;19923;-81
2023/04/22 04:53:19;;;;;;;;;;;;;;;11.89;73.17;100641.81;4908653;29;19923;-81
2023/04/22 04:56:09;;;;;;;;;;;;;;;12.05;72.30;100638.56;4928743;29;19919;-83
2023/04/22 04:59:02;;;;;;;;;;;;;;;12.08;71.80;100637.91;4932868;29;19915;-81
2023/04/22 05:01:54;;;;;;;;;;;;;;;11.95;72.39;100626.09;4936369;29;20306;-81
2023/04/22 05:04:46;;;;;;;;;;;;;;;12.10;72.35;100635.66;4929095;29;19915;-81
2023/04/22 05:07:38;;;;;;;;;;;;;;;12.20;71.52;100638.00;4926649;29;19914;-81
2023/04/22 05:10:31;;;;;;;;;;;;;;;12.21;71.11;100634.97;4943789;29;19919;-81
2023/04/22 05:13:27;;;;;;;;;;;;;;;12.33;71.15;100639.72;4930511;29;19922;-82
2023/04/22 05:16:18;;;;;;;;;;;;;;;12.41;70.60;100642.41;4896142;29;19915;-82
2023/04/22 05:19:10;;;;;;;;;;;;;;;12.41;70.41;100644.31;4938263;29;19915;-82
2023/04/22 05:22:10;;;;;;;;;;;;;;;12.46;70.88;100651.53;4924748;29;19915;-81
2023/04/22 05:25:02;;;;;;;;;;;;;;;12.44;71.20;100651.88;4932586;28;19915;-82
2023/04/22 05:27:53;;;;;;;;;;;;;;;12.45;71.28;100648.00;4944943;28;20322;-81
2023/04/22 05:30:51;;;;;;;;;;;;;;;12.84;70.56;100653.06;4938059;28;19919;-80
2023/04/22 05:33:43;;;;;;;;;;;;;;;12.89;69.18;100657.53;4947703;28;19914;-79
2023/04/22 05:36:35;;;;;;;;;;;;;;;12.93;68.11;100661.19;4924624;29;19915;-79
2023/04/22 05:39:25;;;;;;;;;;;;;;;12.92;68.23;100662.31;4927786;29;19915;-81
2023/04/22 05:42:18;;;;;;;;;;;;;;;13.14;68.90;100666.69;4924784;29;20290;-81
2023/04/22 05:45:10;;;;;;;;;;;;;;;13.14;68.54;100664.75;4937590;29;19915;-82
2023/04/22 05:48:30;;;;;;;;;;;;;;;13.07;69.08;100669.09;4900688;29;19915;-82
2023/04/22 05:51:23;;;;;;;;;;;;;;;12.97;69.35;100666.78;4929913;29;19919;-80
2023/04/22 05:54:15;;;;;;;;;;;;;;;13.14;68.39;100678.41;4909241;29;19919;-81
2023/04/22 05:57:07;;;;;;;;;;;;;;;13.12;67.75;100677.94;4912629;29;19915;-80
2023/04/22 05:59:59;;;;;;;;;;;;;;;13.27;67.83;100674.59;4914424;29;19915;-83
2023/04/22 06:02:51;;;;;;;;;;;;;;;13.37;67.21;100678.84;4943782;29;19919;-80
2023/04/22 06:05:41;;;;;;;;;;;;;;;13.60;66.89;100674.63;4913286;29;19915;-80
2023/04/22 06:08:32;;;;;;;;;;;;;;;13.65;66.77;100677.16;4919187;29;20395;-80
2023/04/22 06:11:24;;;;;;;;;;;;;;;13.82;66.41;100687.09;4924429;29;20353;-80
2023/04/22 06:14:16;;;;;;;;;;;;;;;14.07;65.76;100683.28;4924763;29;19915;-80
2023/04/22 06:17:08;;;;;;;;;;;;;;;14.34;64.28;100687.31;4925623;29;19915;-80
2023/04/22 06:20:00;;;;;;;;;;;;;;;14.35;63.33;100677.97;4927554;29;19914;-79
2023/04/22 06:22:52;;;;;;;;;;;;;;;14.68;62.96;100688.03;4920227;29;19915;-79
2023/04/22 06:25:44;;;;;;;;;;;;;;;14.89;63.13;100696.91;4909561;29;19915;-79
2023/04/22 06:28:37;;;;;;;;;;;;;;;15.25;61.80;100696.81;4918996;29;19914;-79
2023/04/22 06:31:32;;;;;;;;;;;;;;;15.59;60.14;100700.97;4920680;29;19919;-79
2023/04/22 06:34:23;;;;;;;;;;;;;;;15.63;60.77;100692.84;4931772;29;20185;-78
2023/04/22 06:37:15;;;;;;;;;;;;;;;16.02;59.10;100697.44;4922786;29;19919;-79
2023/04/22 06:40:09;;;;;;;;;;;;;;;16.18;58.88;100692.75;4917901;29;19915;-79
2023/04/22 06:43:25;;;;;;;;;;;;;;;16.17;57.86;100702.13;4930601;29;19918;-79
2023/04/22 06:46:34;;;;;;;;;;;;;;;16.46;56.56;100695.41;4909227;29;19915;-78
2023/04/22 06:49:50;;;;;;;;;;;;;;;16.85;55.98;100699.13;4931463;28;19916;-80
2023/04/22 06:53:01;;;;;;;;;;;;;;;17.44;53.64;100703.53;4936244;28;19919;-79
2023/04/22 06:55:53;;;;;;;;;;;;;;;17.59;53.05;100710.94;4905581;29;19915;-79
2023/04/22 06:58:45;;;;;;;;;;;;;;;17.85;51.93;100713.03;4980706;23;19923;-75
2023/04/22 07:01:37;;;;;;;;;;;;;;;17.97;52.25;100706.56;4926225;29;19923;-76
2023/04/22 07:04:28;;;;;;;;;;;;;;;17.94;53.15;100719.09;4942167;28;19914;-78
2023/04/22 07:07:21;;;;;;;;;;;;;;;18.16;51.50;100715.56;4941290;29;20389;-78
2023/04/22 07:10:13;;;;;;;;;;;;;;;18.37;50.55;100709.66;4944460;29;20379;-77
2023/04/22 07:13:15;;;;;;;;;;;;;;;19.24;48.30;100725.19;4939490;29;19919;-78
2023/04/22 07:16:08;;;;;;;;;;;;;;;19.99;46.61;100721.38;4941066;29;19918;-78
2023/04/22 07:18:58;;;;;;;;;;;;;;;20.19;46.37;100721.97;4936936;29;19919;-78
2023/04/22 07:21:47;;;;;;;;;;;;;;;20.14;46.58;100723.09;4928202;28;20290;-78
2023/04/22 07:24:39;;;;;;;;;;;;;;;21.43;43.08;100712.66;4945536;28;20393;-78
2023/04/22 07:27:29;;;;;;;;;;;;;;;23.06;40.62;100715.63;4960063;29;20385;-78
2023/04/22 07:30:21;;;;;;;;;;;;;;;25.02;35.26;100713.28;4959475;29;19973;-78
2023/04/22 07:33:13;;;;;;;;;;;;;;;27.49;30.79;100713.47;4944960;29;19918;-78
2023/04/22 07:36:02;;;;;;;;;;;;;;;29.29;28.14;100719.53;4941947;29;19915;-78
2023/04/22 07:38:54;;;;;;;;;;;;;;;29.93;26.42;100717.69;4942663;29;19914;-78
2023/04/22 07:41:46;;;;;;;;;;;;;;;30.96;25.01;100727.09;4943169;29;19914;-78
2023/04/22 07:44:38;;;;;;;;;;;;;;;30.38;25.52;100725.84;4936463;29;19919;-78
2023/04/22 07:47:30;;;;;;;;;;;;;;;31.04;25.08;100722.03;4935074;29;19915;-78
2023/04/22 07:50:22;;;;;;;;;;;;;;;31.26;24.25;100716.44;4943733;29;19915;-77
2023/04/22 07:53:11;;;;;;;;;;;;;;;32.87;21.46;100726.53;4942478;29;20370;-78
2023/04/22 07:56:03;;;;;;;;;;;;;;;32.53;22.56;100727.56;4941615;29;19922;-78
2023/04/22 07:58:55;;;;;;;;;;;;;;;33.39;21.30;100722.63;4942937;29;20302;-78
2023/04/22 08:01:44;;;;;;;;;;;;;;;34.91;19.52;100722.94;4942930;29;20307;-78
2023/04/22 08:04:36;;;;;;;;;;;;;;;33.82;21.03;100725.09;4943671;29;19915;-78
2023/04/22 08:07:28;;;;;;;;;;;;;;;34.38;20.25;100725.63;4940744;29;19915;-78
2023/04/22 08:10:21;;;;;;;;;;;;;;;35.85;19.51;100721.91;4942531;29;19915;-78
2023/04/22 08:13:13;;;;;;;;;;;;;;;35.06;18.92;100718.09;4944973;29;19918;-78
2023/04/22 08:16:05;;;;;;;;;;;;;;;35.11;18.89;100715.38;4941428;29;19915;-78
2023/04/22 08:18:57;;;;;;;;;;;;;;;35.04;19.34;100720.66;4944090;29;19914;-78
2023/04/22 08:21:47;;;;;;;;;;;;;;;33.59;20.77;100724.94;4926199;29;19915;-78
2023/04/22 08:24:36;;;;;;;;;;;;;;;34.82;19.82;100714.53;4926066;29;20310;-78
2023/04/22 08:27:28;;;;;;;;;;;;;;;34.93;20.20;100718.38;4937133;29;19914;-78
2023/04/22 08:30:20;;;;;;;;;;;;;;;35.21;19.03;100724.59;4947047;29;19915;-78
2023/04/22 08:33:10;;;;;;;;;;;;;;;34.90;19.06;100719.31;4944768;29;19918;-78
2023/04/22 08:36:02;;;;;;;;;;;;;;;34.75;18.57;100716.47;4944713;29;20321;-78
2023/04/22 08:38:54;;;;;;;;;;;;;;;35.08;18.45;100716.34;4940367;29;19915;-78
2023/04/22 08:41:46;;;;;;;;;;;;;;;34.68;18.97;100716.06;4939133;29;19915;-78
2023/04/22 08:44:39;;;;;;;;;;;;;;;35.82;17.68;100724.91;4947011;29;19915;-78
2023/04/22 08:47:32;;;;;;;;;;;;;;;38.07;16.05;100735.19;4943561;29;19915;-78
2023/04/22 08:50:25;;;;;;;;;;;;;;;39.08;14.68;100730.06;4948218;29;20381;-78
2023/04/22 08:53:17;;;;;;;;;;;;;;;37.05;16.33;100730.28;4944071;29;20382;-78
2023/04/22 08:56:09;;;;;;;;;;;;;;;36.42;16.99;100725.09;4942879;29;20524;-78
2023/04/22 08:59:01;;;;;;;;;;;;;;;37.13;16.26;100720.88;4940976;29;19914;-78
2023/04/22 09:01:53;;;;;;;;;;;;;;;37.90;16.26;100720.06;4942522;29;20398;-78
2023/04/22 09:04:48;;;;;;;;;;;;;;;37.23;16.16;100719.44;4947757;29;20376;-78
2023/04/22 09:07:40;;;;;;;;;;;;;;;34.75;18.25;100712.84;4940448;29;19915;-79
2023/04/22 09:10:32;;;;;;;;;;;;;;;37.11;16.65;100720.59;4942393;29;19914;-78
2023/04/22 09:13:22;;;;;;;;;;;;;;;37.26;16.67;100704.25;4942934;29;19918;-78
2023/04/22 09:16:14;;;;;;;;;;;;;;;38.17;15.92;100715.13;4942287;29;20290;-78
2023/04/22 09:19:06;;;;;;;;;;;;;;;36.52;17.06;100711.59;4938552;29;19918;-78
2023/04/22 09:21:58;;;;;;;;;;;;;;;35.96;17.79;100704.31;4943258;29;19914;-78
2023/04/22 09:24:53;;;;;;;;;;;;;;;36.72;16.58;100705.19;4942495;29;20382;-78
2023/04/22 09:27:49;;;;;;;;;;;;;;;36.46;17.07;100699.41;4943048;29;19914;-78
2023/04/22 09:30:41;;;;;;;;;;;;;;;35.40;18.00;100689.22;4935857;29;20381;-78
2023/04/22 09:33:33;;;;;;;;;;;;;;;33.91;19.83;100685.53;4936255;29;19919;-78
2023/04/22 09:36:28;;;;;;;;;;;;;;;34.10;19.03;100691.06;4942377;29;20398;-78
2023/04/22 09:39:20;;;;;;;;;;;;;;;31.24;22.49;100683.16;4941792;29;19915;-78
2023/04/22 09:42:10;;;;;;;;;;;;;;;31.01;22.48;100678.75;4942260;29;19914;-78
2023/04/22 09:45:02;;;;;;;;;;;;;;;31.06;22.51;100679.44;4945699;29;19914;-78
2023/04/22 09:47:55;;;;;;;;;;;;;;;31.06;22.63;100671.81;4943499;29;19914;-78
2023/04/22 09:50:48;;;;;;;;;;;;;;;32.09;21.21;100679.88;4940739;29;19922;-78
2023/04/22 09:53:40;;;;;;;;;;;;;;;32.74;21.38;100686.47;4939358;29;19914;-78
2023/04/22 09:56:52;;;;;;;;;;;;;;;32.85;20.70;100678.34;4943173;29;19914;-78
2023/04/22 09:59:44;;;;;;;;;;;;;;;33.71;19.98;100681.69;4941821;29;20318;-78
2023/04/22 10:02:36;;;;;;;;;;;;;;;32.21;21.41;100666.94;4943196;29;19915;-78
2023/04/22 10:05:28;;;;;;;;;;;;;;;33.91;19.58;100679.88;4924248;29;19915;-78
2023/04/22 10:08:20;;;;;;;;;;;;;;;34.93;18.63;100678.00;4924554;29;19915;-79
2023/04/22 10:11:12;;;;;;;;;;;;;;;33.89;19.71;100682.38;4936390;29;19922;-78
2023/04/22 10:14:04;;;;;;;;;;;;;;;32.94;20.49;100672.69;4942988;29;20266;-78
2023/04/22 10:16:55;;;;;;;;;;;;;;;33.03;20.63;100673.47;4942771;29;19914;-79
2023/04/22 10:19:47;;;;;;;;;;;;;;;33.62;19.57;100678.88;4938170;28;19914;-78
2023/04/22 10:22:38;;;;;;;;;;;;;;;34.22;19.46;100667.53;4933004;29;19919;-78
2023/04/22 10:25:30;;;;;;;;;;;;;;;33.08;20.36;100670.03;4943140;29;19918;-78
2023/04/22 10:28:23;;;;;;;;;;;;;;;31.84;20.98;100657.59;4930468;29;19915;-78
2023/04/22 10:31:23;;;;;;;;;;;;;;;30.64;22.76;100660.03;4938448;29;19948;-79
2023/04/22 10:34:12;;;;;;;;;;;;;;;31.56;22.03;100653.06;4944552;28;20366;-79
2023/04/22 10:37:11;;;;;;;;;;;;;;;32.13;22.24;100648.81;4938565;29;19915;-78
2023/04/22 10:40:27;;;;;;;;;;;;;;;31.82;21.95;100651.63;4947563;29;19915;-78
2023/04/22 10:43:16;;;;;;;;;;;;;;;32.03;22.16;100650.00;4944144;29;19915;-82
2023/04/22 10:46:08;;;;;;;;;;;;;;;32.02;21.59;100632.31;4943223;29;20305;-82
2023/04/22 10:48:58;;;;;;;;;;;;;;;31.06;22.71;100640.91;4932796;29;19914;-82
2023/04/22 10:51:48;;;;;;;;;;;;;;;31.53;21.98;100631.50;4942854;29;20374;-82
2023/04/22 10:54:43;;;;;;;;;;;;;;;31.12;23.04;100638.28;4938046;29;20378;-82
2023/04/22 10:57:36;;;;;;;;;;;;;;;33.35;20.57;100634.59;4949247;28;19915;-81
2023/04/22 11:00:46;;;;;;;;;;;;;;;34.40;19.35;100636.34;4952886;29;19915;-82
2023/04/22 11:03:38;;;;;;;;;;;;;;;35.08;18.16;100631.53;4936211;29;20294;-83
2023/04/22 11:06:29;;;;;;;;;;;;;;;36.38;16.91;100631.03;4944375;29;19915;-82
2023/04/22 11:09:21;;;;;;;;;;;;;;;36.38;16.96;100628.19;4952705;28;20301;-82
2023/04/22 11:12:28;;;;;;;;;;;;;;;35.54;17.81;100625.41;4945015;29;19919;-82
2023/04/22 11:15:21;;;;;;;;;;;;;;;34.59;19.00;100629.28;4942807;29;19915;-80
2023/04/22 11:18:16;;;;;;;;;;;;;;;36.32;17.16;100635.09;4934934;29;19915;-80
2023/04/22 11:21:09;;;;;;;;;;;;;;;36.95;16.26;100630.44;4949062;28;20290;-80
2023/04/22 11:24:01;;;;;;;;;;;;;;;37.89;15.70;100630.50;4937260;29;19915;-80
2023/04/22 11:26:56;;;;;;;;;;;;;;;38.21;14.85;100625.50;4954893;29;19915;-80
2023/04/22 11:30:00;;;;;;;;;;;;;;;40.22;13.81;100626.56;4932744;29;19914;-81
2023/04/22 11:32:57;;;;;;;;;;;;;;;39.53;13.44;100626.38;4940948;29;20306;-81
2023/04/22 11:35:47;;;;;;;;;;;;;;;39.45;13.82;100622.50;4952990;29;19918;-81
2023/04/22 11:38:40;;;;;;;;;;;;;;;40.16;14.01;100615.13;4944902;29;19922;-80
2023/04/22 11:41:28;;;;;;;;;;;;;;;40.86;13.34;100613.00;4937429;29;19919;-81
2023/04/22 11:44:23;;;;;;;;;;;;;;;40.96;13.43;100614.25;4941794;29;19914;-80
2023/04/22 11:47:16;;;;;;;;;;;;;;;40.66;14.09;100610.53;4945628;29;19915;-80
2023/04/22 11:50:08;;;;;;;;;;;;;;;38.11;15.72;100601.44;4938537;29;19915;-79
2023/04/22 11:53:00;;;;;;;;;;;;;;;38.67;15.88;100602.44;4948762;28;19923;-81
2023/04/22 11:55:52;;;;;;;;;;;;;;;40.20;14.71;100594.16;4940813;29;19923;-80
2023/04/22 11:58:44;;;;;;;;;;;;;;;39.24;15.88;100602.03;4940928;29;19915;-80
2023/04/22 12:01:34;;;;;;;;;;;;;;;38.09;16.70;100596.28;4940203;29;19915;-81
2023/04/22 12:04:26;;;;;;;;;;;;;;;35.68;18.51;100582.16;4925575;29;19915;-81
2023/04/22 12:07:18;;;;;;;;;;;;;;;34.75;19.68;100580.81;4925844;29;19915;-80
2023/04/22 12:10:09;;;;;;;;;;;;;;;32.56;21.62;100583.03;4940942;29;19922;-81
2023/04/22 12:13:01;;;;;;;;;;;;;;;33.53;19.93;100581.72;4963871;28;19919;-79
2023/04/22 12:15:54;;;;;;;;;;;;;;;34.13;20.69;100574.41;4941051;29;19923;-79
2023/04/22 12:18:49;;;;;;;;;;;;;;;33.04;21.37;100567.94;4936035;29;19914;-78
2023/04/22 12:21:40;;;;;;;;;;;;;;;33.27;21.15;100572.13;4940213;29;19919;-79
2023/04/22 12:24:33;;;;;;;;;;;;;;;32.01;23.31;100577.28;4932883;29;19919;-79
2023/04/22 12:27:24;;;;;;;;;;;;;;;30.62;24.64;100569.09;4952502;29;19915;-79
2023/04/22 12:30:12;;;;;;;;;;;;;;;29.72;25.45;100571.28;4937793;29;19922;-78
2023/04/22 12:33:04;;;;;;;;;;;;;;;28.62;27.70;100564.56;4937722;29;19919;-79
2023/04/22 12:35:54;;;;;;;;;;;;;;;29.85;26.12;100559.28;4933705;29;19914;-79
2023/04/22 12:38:46;;;;;;;;;;;;;;;30.06;25.73;100565.00;4925040;29;19915;-81
2023/04/22 12:41:38;;;;;;;;;;;;;;;30.58;24.91;100566.38;4935410;28;19919;-80
2023/04/22 12:44:30;;;;;;;;;;;;;;;29.46;26.88;100544.50;4940518;29;19922;-80
2023/04/22 12:47:20;;;;;;;;;;;;;;;28.04;29.01;100554.09;4943943;29;19918;-80
2023/04/22 12:50:12;;;;;;;;;;;;;;;27.88;29.11;100551.31;4954378;28;19915;-80
2023/04/22 12:53:01;;;;;;;;;;;;;;;28.82;28.36;100543.63;4937720;29;19918;-79
2023/04/22 12:55:51;;;;;;;;;;;;;;;29.31;26.79;100548.97;4945451;29;19914;-80
2023/04/22 12:58:40;;;;;;;;;;;;;;;29.55;25.56;100546.66;4935829;29;19919;-79
2023/04/22 13:01:30;;;;;;;;;;;;;;;30.24;24.85;100544.72;4945109;29;19919;-79
2023/04/22 13:04:19;;;;;;;;;;;;;;;30.11;25.20;100539.19;4938215;29;19919;-81
2023/04/22 13:07:11;;;;;;;;;;;;;;;30.32;25.91;100531.25;4940886;29;19915;-78
2023/04/22 13:10:05;;;;;;;;;;;;;;;30.24;24.82;100536.31;4937993;29;20409;-79
2023/04/22 13:12:57;;;;;;;;;;;;;;;32.05;22.48;100530.09;4927790;29;20995;-80
2023/04/22 13:15:49;;;;;;;;;;;;;;;29.92;25.16;100526.19;4934570;29;19914;-79
2023/04/22 13:18:38;;;;;;;;;;;;;;;29.93;25.87;100529.78;4943096;29;20378;-79
2023/04/22 13:21:28;;;;;;;;;;;;;;;29.40;25.26;100520.31;4940189;29;19919;-81
2023/04/22 13:24:20;;;;;;;;;;;;;;;29.96;24.80;100523.28;4927333;29;19919;-80
2023/04/22 13:27:09;;;;;;;;;;;;;;;29.52;25.33;100516.69;4940311;29;20403;-79
2023/04/22 13:29:59;;;;;;;;;;;;;;;29.71;25.24;100521.28;4946823;29;19914;-80
2023/04/22 13:32:51;;;;;;;;;;;;;;;30.30;25.08;100514.84;4941789;29;19923;-80
2023/04/22 13:35:43;;;;;;;;;;;;;;;31.56;23.01;100513.25;4942980;29;20310;-80
2023/04/22 13:38:32;;;;;;;;;;;;;;;31.30;23.32;100507.06;4933400;29;19914;-80
2023/04/22 13:41:24;;;;;;;;;;;;;;;29.98;24.75;100498.34;4938032;29;19914;-78
2023/04/22 13:44:13;;;;;;;;;;;;;;;29.40;26.72;100500.69;4944245;29;19915;-78
2023/04/22 13:47:01;;;;;;;;;;;;;;;30.04;26.31;100499.34;4940943;29;19922;-81
2023/04/22 13:49:46;;;;;;;;;;;;;;;28.81;26.88;100488.06;4942941;29;19923;-84
2023/04/22 13:52:38;;;;;;;;;;;;;;;28.45;28.04;100491.09;4934204;29;20420;-82
2023/04/22 13:55:27;;;;;;;;;;;;;;;27.52;30.35;100494.75;4931941;29;19914;-79
2023/04/22 13:58:19;;;;;;;;;;;;;;;27.66;30.44;100488.78;4933567;29;19948;-83
2023/04/22 14:01:08;;;;;;;;;;;;;;;27.91;30.11;100488.16;4938350;29;19914;-82
2023/04/22 14:04:01;;;;;;;;;;;;;;;27.07;30.12;100480.63;4937148;29;19918;-82
2023/04/22 14:06:52;;;;;;;;;;;;;;;26.77;30.62;100473.25;4943262;29;19915;-82
2023/04/22 14:09:44;;;;;;;;;;;;;;;26.04;31.87;100473.53;4948466;29;19914;-81
2023/04/22 14:12:34;;;;;;;;;;;;;;;26.09;31.33;100473.81;4941053;29;19918;-86
2023/04/22 14:15:21;;;;;;;;;;;;;;;25.84;31.81;100467.91;4946800;29;19914;-84
2023/04/22 14:18:11;;;;;;;;;;;;;;;25.62;32.83;100466.69;4948336;29;19915;-84
2023/04/22 14:21:00;;;;;;;;;;;;;;;25.08;33.41;100467.53;4945821;28;20322;-82
2023/04/22 14:23:49;;;;;;;;;;;;;;;24.92;33.91;100463.78;4954173;28;19915;-83
2023/04/22 14:26:39;;;;;;;;;;;;;;;24.45;34.20;100465.53;4944129;28;20266;-85
2023/04/22 14:29:31;;;;;;;;;;;;;;;24.85;34.10;100464.63;4942882;29;19918;-79
2023/04/22 14:32:23;;;;;;;;;;;;;;;24.68;33.97;100462.88;4952058;29;19919;-79
2023/04/22 14:35:12;;;;;;;;;;;;;;;24.40;34.35;100464.00;4939383;29;19915;-79
2023/04/22 14:38:02;;;;;;;;;;;;;;;24.23;34.89;100454.66;4939795;29;19915;-78
2023/04/22 14:40:54;;;;;;;;;;;;;;;24.46;34.74;100454.03;4926706;29;19915;-79
2023/04/22 14:43:46;;;;;;;;;;;;;;;24.01;34.36;100456.09;4938904;29;19915;-79
2023/04/22 14:46:36;;;;;;;;;;;;;;;24.29;33.92;100449.44;4938493;29;19915;-78
2023/04/22 14:49:28;;;;;;;;;;;;;;;23.57;35.28;100448.56;4937143;29;19914;-79
2023/04/22 14:52:17;;;;;;;;;;;;;;;23.64;36.11;100450.50;4929661;29;19923;-81
2023/04/22 14:55:05;;;;;;;;;;;;;;;23.66;34.97;100456.44;4935357;28;19923;-81
2023/04/22 14:57:59;;;;;;;;;;;;;;;23.64;34.80;100454.06;4942258;28;19914;-79